Time;durP1;ratioP1;P1;durP2;ratioP2;P2;SDS_P1;SDS_P2;PMS_P1;PMS_P2;Temp;Humidity;BMP_temperature;BMP_pressure;BME280_temperature;BME280_humidity;BME280_pressure;Samples;Min_cycle;Max_cycle;Signal;HPM_P1;HPM_P2
2023/03/21 00:02:12;;;;;;;;;;;;;;;7.67;100.00;95863.59;10396008;28;2046;-66
2023/03/21 00:07:22;;;;;;;;;;;;;;;7.61;100.00;95853.09;10395990;28;1978;-67
2023/03/21 00:12:24;;;;;;;;;;;;;;;7.58;100.00;95855.25;10392785;28;2039;-66
2023/03/21 00:17:31;;;;;;;;;;;;;;;7.62;100.00;95860.88;10392681;28;2120;-66
2023/03/21 00:22:33;;;;;;;;;;;;;;;7.61;100.00;95856.59;10395275;28;1965;-68
2023/03/21 00:27:36;;;;;;;;;;;;;;;7.73;100.00;95845.75;10397069;28;2069;-67
2023/03/21 00:33:00;;;;;;;;;;;;;;;7.81;100.00;95847.94;10393828;28;1989;-66
2023/03/21 00:38:13;;;;;;;;;;;;;;;7.89;100.00;95846.66;10392542;28;2128;-65
2023/03/21 00:43:18;;;;;;;;;;;;;;;7.94;100.00;95836.81;10393222;28;1938;-67
2023/03/21 00:48:20;;;;;;;;;;;;;;;7.96;100.00;95832.03;10395755;28;2016;-67
2023/03/21 00:53:22;;;;;;;;;;;;;;;8.04;100.00;95830.75;10395893;28;1982;-67
2023/03/21 00:58:25;;;;;;;;;;;;;;;8.05;100.00;95832.34;10391161;28;1969;-68
2023/03/21 01:03:28;;;;;;;;;;;;;;;8.07;100.00;95820.31;10385693;28;1966;-67
2023/03/21 01:08:32;;;;;;;;;;;;;;;8.04;100.00;95820.84;10390876;28;2128;-66
2023/03/21 01:13:53;;;;;;;;;;;;;;;8.02;100.00;95812.28;10394522;28;2041;-66
2023/03/21 01:19:08;;;;;;;;;;;;;;;8.08;100.00;95805.91;10387030;28;2052;-66
2023/03/21 01:24:26;;;;;;;;;;;;;;;8.13;100.00;95805.91;10393166;28;2037;-67
2023/03/21 01:29:29;;;;;;;;;;;;;;;8.13;100.00;95805.91;10386528;28;2051;-66
2023/03/21 01:34:32;;;;;;;;;;;;;;;8.15;100.00;95804.88;10395449;28;1981;-67
2023/03/21 01:39:34;;;;;;;;;;;;;;;8.23;100.00;95791.00;10392649;28;1970;-68
2023/03/21 01:44:38;;;;;;;;;;;;;;;8.19;100.00;95789.88;10393459;28;2021;-66
2023/03/21 01:49:44;;;;;;;;;;;;;;;8.23;100.00;95788.31;10394974;28;1899;-66
2023/03/21 01:54:49;;;;;;;;;;;;;;;8.23;100.00;95780.28;10397848;28;2139;-67
2023/03/21 01:59:53;;;;;;;;;;;;;;;8.19;100.00;95779.19;10406826;28;1514;-66
2023/03/21 02:04:57;;;;;;;;;;;;;;;8.09;100.00;95775.38;10401386;28;1974;-67
2023/03/21 02:09:59;;;;;;;;;;;;;;;8.10;100.00;95776.19;10396744;28;1953;-66
2023/03/21 02:15:02;;;;;;;;;;;;;;;8.17;100.00;95781.31;10397602;28;2132;-66
2023/03/21 02:20:07;;;;;;;;;;;;;;;8.15;100.00;95773.53;10387768;28;2025;-66
2023/03/21 02:25:10;;;;;;;;;;;;;;;8.16;100.00;95774.34;10393084;28;1971;-65
2023/03/21 02:30:23;;;;;;;;;;;;;;;8.15;100.00;95776.22;10384741;28;1975;-66
2023/03/21 02:35:34;;;;;;;;;;;;;;;8.12;100.00;95774.84;10393634;28;1985;-66
2023/03/21 02:40:45;;;;;;;;;;;;;;;8.14;100.00;95777.25;10385674;28;2013;-66
2023/03/21 02:45:48;;;;;;;;;;;;;;;8.17;100.00;95775.97;10390523;28;2026;-67
2023/03/21 02:50:51;;;;;;;;;;;;;;;8.22;100.00;95770.63;10392087;28;1989;-67
2023/03/21 02:56:03;;;;;;;;;;;;;;;8.21;100.00;95777.88;10397274;28;2054;-67
2023/03/21 03:01:07;;;;;;;;;;;;;;;8.21;100.00;95766.34;10393351;28;1965;-67
2023/03/21 03:06:11;;;;;;;;;;;;;;;8.23;100.00;95774.94;10399843;28;1942;-66
2023/03/21 03:11:14;;;;;;;;;;;;;;;8.13;100.00;95768.44;10406326;28;2031;-67
2023/03/21 03:16:18;;;;;;;;;;;;;;;8.22;100.00;95773.31;10405627;28;1915;-66
2023/03/21 03:21:21;;;;;;;;;;;;;;;8.22;100.00;95768.75;10393216;28;1967;-67
2023/03/21 03:26:25;;;;;;;;;;;;;;;8.18;100.00;95761.50;10398589;28;1962;-66
2023/03/21 03:31:28;;;;;;;;;;;;;;;8.11;100.00;95757.19;10392337;28;2012;-69
2023/03/21 03:36:34;;;;;;;;;;;;;;;8.10;100.00;95760.91;10396343;28;2080;-66
2023/03/21 03:41:37;;;;;;;;;;;;;;;8.13;100.00;95755.03;10399773;28;1978;-65
2023/03/21 03:46:59;;;;;;;;;;;;;;;8.10;100.00;95755.56;10389483;28;2418;-66
2023/03/21 03:52:01;;;;;;;;;;;;;;;8.07;100.00;95758.75;10386600;28;2095;-66
2023/03/21 03:57:04;;;;;;;;;;;;;;;8.11;100.00;95762.53;10395441;28;2015;-67
2023/03/21 04:02:07;;;;;;;;;;;;;;;8.12;100.00;95766.00;10393545;28;1983;-66
2023/03/21 04:07:10;;;;;;;;;;;;;;;8.06;100.00;95759.81;10400942;28;1965;-67
2023/03/21 04:12:13;;;;;;;;;;;;;;;8.08;100.00;95757.72;10396202;28;1983;-67
2023/03/21 04:17:17;;;;;;;;;;;;;;;8.05;100.00;95752.03;10391070;28;1989;-67
2023/03/21 04:22:26;;;;;;;;;;;;;;;7.97;100.00;95756.00;10383490;28;1986;-67
2023/03/21 04:27:29;;;;;;;;;;;;;;;7.90;100.00;95750.09;10389740;28;1988;-67
2023/03/21 04:32:32;;;;;;;;;;;;;;;7.93;100.00;95754.91;10393671;28;1983;-68
2023/03/21 04:37:35;;;;;;;;;;;;;;;7.90;100.00;95747.41;10393639;28;2147;-68
2023/03/21 04:42:37;;;;;;;;;;;;;;;7.90;100.00;95755.44;10395727;28;2131;-65
2023/03/21 04:47:40;;;;;;;;;;;;;;;7.91;100.00;95735.63;10390810;28;1930;-67
2023/03/21 04:52:43;;;;;;;;;;;;;;;7.95;100.00;95750.13;10403446;28;1922;-67
2023/03/21 04:57:46;;;;;;;;;;;;;;;7.92;100.00;95745.28;10397293;28;1919;-66
2023/03/21 05:02:49;;;;;;;;;;;;;;;7.86;100.00;95746.28;10393193;28;2082;-66
2023/03/21 05:07:52;;;;;;;;;;;;;;;7.94;100.00;95751.16;10395573;28;1935;-66
2023/03/21 05:12:54;;;;;;;;;;;;;;;7.93;100.00;95749.56;10397984;28;1974;-65
2023/03/21 05:18:10;;;;;;;;;;;;;;;7.99;100.00;95740.50;10392738;28;1981;-67
2023/03/21 05:23:12;;;;;;;;;;;;;;;8.05;100.00;95738.66;10397099;28;1966;-68
2023/03/21 05:28:17;;;;;;;;;;;;;;;8.01;100.00;95754.41;10390378;28;2078;-69
2023/03/21 05:33:19;;;;;;;;;;;;;;;7.99;100.00;95737.81;10387159;28;2248;-68
2023/03/21 05:38:23;;;;;;;;;;;;;;;8.01;100.00;95741.03;10393671;28;2005;-67
2023/03/21 05:43:28;;;;;;;;;;;;;;;8.09;100.00;95735.22;10386030;28;1960;-67
2023/03/21 05:48:32;;;;;;;;;;;;;;;8.16;100.00;95747.56;10388083;28;2048;-69
2023/03/21 05:53:34;;;;;;;;;;;;;;;8.25;100.00;95756.72;10383000;28;1981;-69
2023/03/21 05:58:37;;;;;;;;;;;;;;;8.34;100.00;95760.53;10391575;28;2122;-68
2023/03/21 06:03:40;;;;;;;;;;;;;;;8.50;100.00;95759.56;10390125;28;2040;-68
2023/03/21 06:08:43;;;;;;;;;;;;;;;8.70;100.00;95758.03;10394315;28;2029;-67
2023/03/21 06:13:46;;;;;;;;;;;;;;;8.77;100.00;95766.66;10394893;28;2088;-71
2023/03/21 06:18:48;;;;;;;;;;;;;;;9.03;100.00;95760.31;10399875;28;2007;-66
2023/03/21 06:23:51;;;;;;;;;;;;;;;9.22;100.00;95763.31;10399587;28;2063;-69
2023/03/21 06:28:54;;;;;;;;;;;;;;;9.46;100.00;95760.94;10394250;28;1990;-69
2023/03/21 06:33:57;;;;;;;;;;;;;;;9.25;100.00;95764.66;10387037;28;2102;-71
2023/03/21 06:39:00;;;;;;;;;;;;;;;9.33;100.00;95764.94;10393569;28;2050;-68
2023/03/21 06:44:02;;;;;;;;;;;;;;;9.54;100.00;95764.97;10395713;28;1995;-75
2023/03/21 06:49:05;;;;;;;;;;;;;;;9.57;100.00;95773.31;10399066;28;1936;-77
2023/03/21 06:54:09;;;;;;;;;;;;;;;9.55;100.00;95775.47;10435702;28;2065;-70
2023/03/21 06:59:11;;;;;;;;;;;;;;;9.54;100.00;95768.44;10404720;28;1965;-71
2023/03/21 07:04:14;;;;;;;;;;;;;;;9.70;100.00;95764.72;10398747;28;1962;-69
2023/03/21 07:09:20;;;;;;;;;;;;;;;9.85;100.00;95763.09;10404389;28;2027;-70
2023/03/21 07:14:24;;;;;;;;;;;;;;;9.95;100.00;95771.97;10397981;28;1906;-70
2023/03/21 07:19:27;;;;;;;;;;;;;;;10.20;100.00;95765.78;10401571;28;2194;-69
2023/03/21 07:24:29;;;;;;;;;;;;;;;10.18;100.00;95767.94;10402902;28;2041;-71
2023/03/21 07:29:32;;;;;;;;;;;;;;;10.61;100.00;95764.91;10399396;28;2058;-71
2023/03/21 07:34:35;;;;;;;;;;;;;;;10.77;100.00;95769.97;10404367;28;2058;-69
2023/03/21 07:39:37;;;;;;;;;;;;;;;10.53;100.00;95771.66;10408315;28;2076;-70
2023/03/21 07:44:41;;;;;;;;;;;;;;;10.64;100.00;95765.16;10398144;28;2119;-69
2023/03/21 07:49:43;;;;;;;;;;;;;;;10.77;100.00;95769.97;10402858;28;1935;-71
2023/03/21 07:54:46;;;;;;;;;;;;;;;10.86;100.00;95766.69;10406625;28;2098;-70
2023/03/21 07:59:49;;;;;;;;;;;;;;;11.04;100.00;95764.19;10397906;28;1977;-71
2023/03/21 08:04:52;;;;;;;;;;;;;;;11.09;100.00;95771.44;10408474;28;2053;-74
2023/03/21 08:09:54;;;;;;;;;;;;;;;11.13;100.00;95761.72;10404529;28;2160;-74
2023/03/21 08:14:57;;;;;;;;;;;;;;;11.44;100.00;95770.44;10407387;28;1963;-75
2023/03/21 08:20:03;;;;;;;;;;;;;;;11.39;100.00;95770.47;10406623;28;1950;-74
2023/03/21 08:25:06;;;;;;;;;;;;;;;11.82;100.00;95763.47;10408258;28;1939;-74
2023/03/21 08:30:09;;;;;;;;;;;;;;;12.21;100.00;95759.09;10407984;28;2013;-76
2023/03/21 08:35:14;;;;;;;;;;;;;;;12.53;100.00;95758.50;10407128;28;2009;-75
2023/03/21 08:40:18;;;;;;;;;;;;;;;12.82;100.00;95759.25;10404502;28;1918;-77
2023/03/21 08:45:22;;;;;;;;;;;;;;;12.74;100.00;95762.59;10410805;28;1938;-74
2023/03/21 08:50:25;;;;;;;;;;;;;;;12.19;100.00;95764.78;10399403;28;2169;-75
2023/03/21 08:55:29;;;;;;;;;;;;;;;12.55;100.00;95753.66;10400486;28;2014;-75
2023/03/21 09:00:32;;;;;;;;;;;;;;;12.83;100.00;95747.38;10403109;28;2024;-76
2023/03/21 09:05:35;;;;;;;;;;;;;;;13.66;100.00;95737.09;10395124;28;2054;-76
2023/03/21 09:10:38;;;;;;;;;;;;;;;13.46;100.00;95728.22;10395187;28;2231;-78
2023/03/21 09:15:44;;;;;;;;;;;;;;;13.87;99.96;95730.31;10401439;28;1985;-75
2023/03/21 09:20:49;;;;;;;;;;;;;;;14.32;96.07;95741.44;10401326;28;2085;-74
2023/03/21 09:25:51;;;;;;;;;;;;;;;14.99;90.29;95725.53;10397615;28;2095;-75
2023/03/21 09:30:55;;;;;;;;;;;;;;;14.41;90.48;95734.22;10395377;28;2046;-73
2023/03/21 09:35:59;;;;;;;;;;;;;;;14.93;86.54;95732.16;10401756;28;2077;-74
2023/03/21 09:41:03;;;;;;;;;;;;;;;14.87;83.37;95727.94;10402366;28;1946;-77
2023/03/21 09:46:15;;;;;;;;;;;;;;;15.03;83.67;95723.84;10395881;28;2033;-74
2023/03/21 09:51:28;;;;;;;;;;;;;;;15.13;83.01;95720.91;10434688;28;1989;-74
2023/03/21 09:56:30;;;;;;;;;;;;;;;15.38;81.35;95724.16;10399545;28;2009;-73
2023/03/21 10:01:40;;;;;;;;;;;;;;;15.40;81.00;95727.38;10400790;28;2146;-75
2023/03/21 10:06:52;;;;;;;;;;;;;;;15.56;78.30;95720.50;10397392;28;2018;-75
2023/03/21 10:11:55;;;;;;;;;;;;;;;16.17;78.64;95723.69;10392683;28;1974;-75
2023/03/21 10:16:59;;;;;;;;;;;;;;;16.54;76.13;95706.16;10393259;28;2129;-75
2023/03/21 10:22:02;;;;;;;;;;;;;;;16.60;73.18;95699.47;10396382;28;1981;-74
2023/03/21 10:27:05;;;;;;;;;;;;;;;16.65;70.83;95707.47;10393045;28;1990;-75
2023/03/21 10:32:08;;;;;;;;;;;;;;;15.76;74.25;95694.06;10397228;28;2102;-74
2023/03/21 10:37:10;;;;;;;;;;;;;;;15.55;73.80;95697.22;10440280;28;1959;-73
2023/03/21 10:42:13;;;;;;;;;;;;;;;16.17;72.89;95688.44;10401219;28;2053;-72
2023/03/21 10:47:16;;;;;;;;;;;;;;;16.12;73.13;95680.41;10395008;28;1978;-73
2023/03/21 10:52:18;;;;;;;;;;;;;;;15.33;77.00;95676.34;10397893;28;2070;-75
2023/03/21 10:57:21;;;;;;;;;;;;;;;14.93;79.28;95677.22;10402173;28;1998;-77
2023/03/21 11:02:23;;;;;;;;;;;;;;;15.36;76.98;95677.63;10398942;28;1942;-73
2023/03/21 11:07:29;;;;;;;;;;;;;;;15.44;75.69;95668.75;10390957;28;1981;-74
2023/03/21 11:12:32;;;;;;;;;;;;;;;15.02;76.92;95667.31;10396466;28;2042;-85
2023/03/21 11:17:36;;;;;;;;;;;;;;;14.23;82.49;95662.09;10392154;28;2051;-85
2023/03/21 11:22:38;;;;;;;;;;;;;;;14.57;83.17;95659.84;10390662;28;2072;-82
2023/03/21 11:27:42;;;;;;;;;;;;;;;14.93;82.75;95659.06;10401046;28;1966;-81
2023/03/21 11:32:44;;;;;;;;;;;;;;;15.03;81.79;95645.34;10401277;28;2056;-81
2023/03/21 11:37:49;;;;;;;;;;;;;;;14.76;79.24;95631.84;10404150;28;2095;-81
2023/03/21 11:42:52;;;;;;;;;;;;;;;14.75;83.41;95624.81;10399134;28;1991;-81
2023/03/21 11:47:55;;;;;;;;;;;;;;;14.88;81.15;95613.19;10404448;28;1985;-82
2023/03/21 11:52:57;;;;;;;;;;;;;;;14.76;80.66;95611.03;10396660;28;1966;-81
2023/03/21 11:58:00;;;;;;;;;;;;;;;14.59;81.44;95611.63;10387603;28;2042;-80
2023/03/21 12:03:16;;;;;;;;;;;;;;;14.15;81.61;95589.81;10396443;28;2098;-80
2023/03/21 12:08:19;;;;;;;;;;;;;;;14.12;82.03;95593.09;10396048;28;1972;-80
2023/03/21 12:13:22;;;;;;;;;;;;;;;14.26;80.53;95570.38;10398528;28;1977;-80
2023/03/21 12:18:25;;;;;;;;;;;;;;;14.28;79.85;95556.56;10400003;28;2039;-81
2023/03/21 12:23:28;;;;;;;;;;;;;;;14.61;77.80;95570.75;10394657;28;2148;-79
2023/03/21 12:28:31;;;;;;;;;;;;;;;14.18;78.83;95567.56;10422627;28;2000;-80
2023/03/21 12:33:35;;;;;;;;;;;;;;;14.42;80.62;95562.75;10401825;28;1915;-74
2023/03/21 12:38:37;;;;;;;;;;;;;;;14.77;76.33;95555.00;10402630;28;1966;-73
2023/03/21 12:43:40;;;;;;;;;;;;;;;15.23;74.50;95553.91;10403248;28;2102;-75
2023/03/21 12:48:43;;;;;;;;;;;;;;;16.02;68.70;95551.31;10396571;28;2005;-72
2023/03/21 12:53:46;;;;;;;;;;;;;;;16.44;64.16;95532.78;10427268;28;1974;-71
2023/03/21 12:58:49;;;;;;;;;;;;;;;16.99;62.65;95526.81;10399003;28;2025;-73
2023/03/21 13:03:52;;;;;;;;;;;;;;;16.89;60.23;95524.41;10405652;28;1998;-73
2023/03/21 13:08:55;;;;;;;;;;;;;;;16.83;59.49;95512.09;10401990;28;1919;-72
2023/03/21 13:13:59;;;;;;;;;;;;;;;16.99;58.75;95499.66;10398159;28;2066;-73
2023/03/21 13:19:02;;;;;;;;;;;;;;;17.49;56.86;95491.72;10410763;28;2044;-71
2023/03/21 13:24:05;;;;;;;;;;;;;;;17.00;59.31;95496.63;10406479;28;2064;-72
2023/03/21 13:29:10;;;;;;;;;;;;;;;16.88;59.67;95491.03;10402076;28;1896;-73
2023/03/21 13:34:13;;;;;;;;;;;;;;;17.24;57.85;95485.25;10396491;28;2011;-73
2023/03/21 13:39:16;;;;;;;;;;;;;;;17.14;55.75;95482.84;10402308;28;2127;-72
2023/03/21 13:44:19;;;;;;;;;;;;;;;17.40;55.49;95465.69;10403555;28;1999;-72
2023/03/21 13:49:22;;;;;;;;;;;;;;;17.13;53.74;95473.13;10406827;28;1461;-72
2023/03/21 13:54:28;;;;;;;;;;;;;;;17.19;53.95;95471.84;10404497;28;1914;-74
2023/03/21 13:59:30;;;;;;;;;;;;;;;17.15;52.39;95465.44;10408028;28;1891;-73
2023/03/21 14:04:33;;;;;;;;;;;;;;;17.25;49.63;95462.38;10405285;28;2163;-74
2023/03/21 14:09:45;;;;;;;;;;;;;;;17.02;49.98;95455.56;10400958;28;2143;-72
2023/03/21 14:14:47;;;;;;;;;;;;;;;17.12;51.56;95449.81;10400417;28;2042;-73
2023/03/21 14:19:50;;;;;;;;;;;;;;;16.81;53.84;95454.63;10412634;28;2005;-73
2023/03/21 14:24:52;;;;;;;;;;;;;;;16.44;55.11;95446.78;10390972;28;2076;-73
2023/03/21 14:29:55;;;;;;;;;;;;;;;16.50;56.55;95444.72;10399035;28;2100;-72
2023/03/21 14:34:57;;;;;;;;;;;;;;;16.25;57.61;95440.88;10396324;28;2103;-73
2023/03/21 14:40:00;;;;;;;;;;;;;;;15.81;57.83;95439.19;10404969;28;2045;-75
2023/03/21 14:45:03;;;;;;;;;;;;;;;15.79;57.09;95430.56;10403946;28;2115;-73
2023/03/21 14:50:05;;;;;;;;;;;;;;;15.76;56.60;95436.59;10401884;28;2076;-74
2023/03/21 14:55:08;;;;;;;;;;;;;;;15.78;60.02;95421.66;10394744;28;1959;-74
2023/03/21 15:00:11;;;;;;;;;;;;;;;15.73;62.22;95423.69;10396058;28;1953;-73
2023/03/21 15:05:14;;;;;;;;;;;;;;;15.86;59.67;95420.88;10405737;28;1946;-73
2023/03/21 15:10:17;;;;;;;;;;;;;;;15.67;60.12;95423.03;10409105;28;2046;-72
2023/03/21 15:15:19;;;;;;;;;;;;;;;15.40;64.14;95419.41;10407983;28;2052;-73
2023/03/21 15:20:23;;;;;;;;;;;;;;;15.47;65.78;95424.38;10408345;28;1958;-72
2023/03/21 15:25:25;;;;;;;;;;;;;;;15.21;70.54;95429.69;10401926;28;1998;-73
2023/03/21 15:30:28;;;;;;;;;;;;;;;15.14;72.30;95427.41;10413889;28;2132;-78
2023/03/21 15:35:30;;;;;;;;;;;;;;;15.31;73.61;95426.69;10403434;28;2042;-80
2023/03/21 15:40:34;;;;;;;;;;;;;;;15.25;73.05;95417.09;10403643;28;2112;-79
2023/03/21 15:45:38;;;;;;;;;;;;;;;15.04;73.86;95416.84;10406106;28;2049;-78
2023/03/21 15:50:41;;;;;;;;;;;;;;;14.95;76.01;95415.19;10404329;28;1986;-78
2023/03/21 15:55:47;;;;;;;;;;;;;;;14.77;77.14;95415.09;10404647;28;2119;-79
2023/03/21 16:00:50;;;;;;;;;;;;;;;14.77;76.94;95423.22;10396182;28;1958;-81
2023/03/21 16:05:56;;;;;;;;;;;;;;;15.01;76.79;95422.88;10411942;28;1939;-80
2023/03/21 16:10:59;;;;;;;;;;;;;;;14.93;78.09;95425.53;10399825;28;2114;-81
2023/03/21 16:16:03;;;;;;;;;;;;;;;14.75;80.59;95424.63;10403905;28;2060;-80
2023/03/21 16:21:05;;;;;;;;;;;;;;;14.69;80.01;95428.53;10400990;28;2214;-78
2023/03/21 16:26:08;;;;;;;;;;;;;;;14.63;82.12;95429.78;10409576;28;2043;-80
2023/03/21 16:31:10;;;;;;;;;;;;;;;14.52;82.92;95443.56;10398249;28;2096;-80
2023/03/21 16:36:14;;;;;;;;;;;;;;;14.39;82.83;95438.97;10393153;28;1970;-81
2023/03/21 16:41:16;;;;;;;;;;;;;;;14.30;82.43;95447.00;10430741;28;1923;-76
2023/03/21 16:46:20;;;;;;;;;;;;;;;14.25;83.35;95444.41;10400749;28;1949;-80
2023/03/21 16:51:24;;;;;;;;;;;;;;;14.09;83.80;95440.44;10394283;28;1957;-79
2023/03/21 16:56:27;;;;;;;;;;;;;;;14.02;83.75;95454.38;10391344;28;2023;-80
2023/03/21 17:01:30;;;;;;;;;;;;;;;13.85;86.19;95451.47;10395638;28;2135;-80
2023/03/21 17:06:33;;;;;;;;;;;;;;;13.79;87.44;95458.09;10395108;28;1962;-79
2023/03/21 17:11:40;;;;;;;;;;;;;;;13.69;88.62;95447.50;10397006;28;2089;-79
2023/03/21 17:16:48;;;;;;;;;;;;;;;13.57;90.78;95449.91;10391597;28;1964;-79
2023/03/21 17:21:51;;;;;;;;;;;;;;;13.40;92.85;95451.28;10400874;28;2047;-79
2023/03/21 17:26:53;;;;;;;;;;;;;;;13.25;94.60;95449.69;10401054;28;2036;-78
2023/03/21 17:31:55;;;;;;;;;;;;;;;13.04;97.22;95458.41;10404072;28;1989;-80
2023/03/21 17:36:58;;;;;;;;;;;;;;;12.93;98.42;95458.59;10401861;28;1994;-80
2023/03/21 17:42:01;;;;;;;;;;;;;;;12.80;99.94;95455.84;10400525;28;2127;-78
2023/03/21 17:47:03;;;;;;;;;;;;;;;12.55;100.00;95448.97;10394080;28;1989;-79
2023/03/21 17:52:06;;;;;;;;;;;;;;;12.40;100.00;95453.47;10391327;28;2051;-80
2023/03/21 17:57:08;;;;;;;;;;;;;;;12.29;100.00;95456.63;10393301;28;1981;-79
2023/03/21 18:02:11;;;;;;;;;;;;;;;12.19;100.00;95454.88;10394881;28;2013;-78
2023/03/21 18:07:13;;;;;;;;;;;;;;;12.07;100.00;95457.19;10397630;28;2000;-80
2023/03/21 18:12:26;;;;;;;;;;;;;;;12.05;100.00;95460.19;10396764;28;2108;-80
2023/03/21 18:17:28;;;;;;;;;;;;;;;12.02;100.00;95463.44;10395924;28;2017;-79
2023/03/21 18:22:32;;;;;;;;;;;;;;;11.94;100.00;95469.50;10414825;28;2051;-79
2023/03/21 18:27:34;;;;;;;;;;;;;;;11.83;100.00;95468.00;10419351;28;2049;-80
2023/03/21 18:32:57;;;;;;;;;;;;;;;11.88;100.00;95471.44;10407474;28;1954;-78
2023/03/21 18:38:01;;;;;;;;;;;;;;;12.01;100.00;95472.63;10403299;28;2008;-79
2023/03/21 18:43:04;;;;;;;;;;;;;;;12.04;100.00;95484.72;10397869;28;1978;-80
2023/03/21 18:48:27;;;;;;;;;;;;;;;12.05;100.00;95472.88;10403519;28;1949;-77
2023/03/21 18:53:33;;;;;;;;;;;;;;;12.11;100.00;95477.09;10403822;28;1965;-75
2023/03/21 18:58:36;;;;;;;;;;;;;;;12.14;100.00;95484.59;10410691;28;1986;-76
2023/03/21 19:03:39;;;;;;;;;;;;;;;12.14;100.00;95482.69;10406047;28;2072;-78
2023/03/21 19:08:44;;;;;;;;;;;;;;;12.15;100.00;95491.56;10402386;28;1938;-78
2023/03/21 19:13:47;;;;;;;;;;;;;;;12.12;100.00;95492.97;10409699;28;2002;-79
2023/03/21 19:18:50;;;;;;;;;;;;;;;12.07;100.00;95490.31;10408264;28;1990;-78
2023/03/21 19:23:58;;;;;;;;;;;;;;;12.05;100.00;95480.94;10398720;28;1989;-79
2023/03/21 19:29:22;;;;;;;;;;;;;;;12.08;100.00;95488.44;10404157;28;1994;-79
2023/03/21 19:34:25;;;;;;;;;;;;;;;12.07;100.00;95486.84;10404923;28;1967;-76
2023/03/21 19:39:28;;;;;;;;;;;;;;;12.04;100.00;95496.31;10398990;28;2054;-77
2023/03/21 19:44:32;;;;;;;;;;;;;;;12.00;100.00;95500.66;10404845;28;1978;-77
2023/03/21 19:49:39;;;;;;;;;;;;;;;11.95;100.00;95497.22;10395420;28;2404;-78
2023/03/21 19:55:03;;;;;;;;;;;;;;;11.82;100.00;95506.81;10429179;28;1986;-77
2023/03/21 20:00:09;;;;;;;;;;;;;;;11.74;100.00;95508.22;10398242;28;2013;-77
2023/03/21 20:05:11;;;;;;;;;;;;;;;11.55;100.00;95504.66;10401756;28;1544;-76
2023/03/21 20:10:15;;;;;;;;;;;;;;;11.48;100.00;95512.28;10410855;28;1564;-78
2023/03/21 20:15:19;;;;;;;;;;;;;;;11.38;100.00;95516.66;10411949;28;1750;-78
2023/03/21 20:20:24;;;;;;;;;;;;;;;11.32;100.00;95523.22;10415379;28;1895;-77
2023/03/21 20:25:27;;;;;;;;;;;;;;;11.20;100.00;95520.09;10406174;28;1477;-77
2023/03/21 20:30:30;;;;;;;;;;;;;;;11.10;100.00;95520.19;10414968;28;1830;-78
2023/03/21 20:35:33;;;;;;;;;;;;;;;11.00;100.00;95513.00;10409821;28;2001;-78
2023/03/21 20:40:56;;;;;;;;;;;;;;;10.85;100.00;95515.00;10446359;28;1453;-77
2023/03/21 20:46:02;;;;;;;;;;;;;;;10.81;100.00;95512.91;10428667;28;1567;-79
2023/03/21 20:51:06;;;;;;;;;;;;;;;10.79;100.00;95520.44;10411485;28;1950;-77
2023/03/21 20:56:29;;;;;;;;;;;;;;;10.73;100.00;95516.16;10408851;28;1910;-77
2023/03/21 21:01:32;;;;;;;;;;;;;;;10.64;100.00;95517.06;10396506;28;1999;-77
2023/03/21 21:06:35;;;;;;;;;;;;;;;10.53;100.00;95521.69;10407603;28;2212;-77
2023/03/21 21:11:38;;;;;;;;;;;;;;;10.46;100.00;95515.84;10413379;28;1959;-78
2023/03/21 21:17:00;;;;;;;;;;;;;;;10.40;100.00;95516.94;10429155;28;1935;-75
2023/03/21 21:22:19;;;;;;;;;;;;;;;10.35;100.00;95520.47;10409224;28;1962;-76
2023/03/21 21:27:22;;;;;;;;;;;;;;;10.39;100.00;95526.88;10407489;28;1942;-75
2023/03/21 21:32:24;;;;;;;;;;;;;;;10.45;100.00;95515.03;10409299;28;1985;-76
2023/03/21 21:37:26;;;;;;;;;;;;;;;10.40;100.00;95516.94;10409893;28;1986;-76
2023/03/21 21:42:29;;;;;;;;;;;;;;;10.38;100.00;95516.44;10403111;28;2261;-74
2023/03/21 21:47:31;;;;;;;;;;;;;;;10.33;100.00;95511.09;10406444;28;1950;-77
2023/03/21 21:52:33;;;;;;;;;;;;;;;10.21;100.00;95504.13;10409430;28;2041;-74
2023/03/21 21:57:38;;;;;;;;;;;;;;;10.09;100.00;95508.22;10405389;28;2112;-74
2023/03/21 22:02:42;;;;;;;;;;;;;;;9.92;100.00;95511.25;10409131;28;2003;-75
2023/03/21 22:07:45;;;;;;;;;;;;;;;9.85;100.00;95510.75;10410193;28;2054;-74
2023/03/21 22:12:48;;;;;;;;;;;;;;;9.80;100.00;95508.06;10414495;28;1970;-76
2023/03/21 22:17:51;;;;;;;;;;;;;;;9.79;100.00;95514.53;10402327;28;2101;-75
2023/03/21 22:22:55;;;;;;;;;;;;;;;9.77;100.00;95516.69;10406525;28;2005;-76
2023/03/21 22:27:59;;;;;;;;;;;;;;;9.61;100.00;95513.28;10404449;28;2015;-75
2023/03/21 22:33:02;;;;;;;;;;;;;;;9.50;100.00;95515.16;10402149;28;2010;-77
2023/03/21 22:38:11;;;;;;;;;;;;;;;9.36;100.00;95520.31;10398712;28;1973;-77
2023/03/21 22:43:16;;;;;;;;;;;;;;;9.29;100.00;95511.75;10427341;28;2007;-76
2023/03/21 22:48:19;;;;;;;;;;;;;;;9.23;100.00;95525.44;10399467;28;2035;-75
2023/03/21 22:53:22;;;;;;;;;;;;;;;9.16;100.00;95521.16;10395508;28;1962;-76
2023/03/21 22:58:24;;;;;;;;;;;;;;;9.16;100.00;95526.50;10388344;28;2198;-74
2023/03/21 23:03:27;;;;;;;;;;;;;;;9.17;100.00;95522.75;10386927;28;2029;-75
2023/03/21 23:08:31;;;;;;;;;;;;;;;9.02;100.00;95524.63;10387759;28;2040;-74
2023/03/21 23:13:33;;;;;;;;;;;;;;;8.96;100.00;95531.88;10393750;28;1974;-75
2023/03/21 23:18:37;;;;;;;;;;;;;;;8.94;100.00;95526.78;10385068;28;2014;-74
2023/03/21 23:23:40;;;;;;;;;;;;;;;9.01;100.00;95523.03;10390498;28;1970;-75
2023/03/21 23:28:53;;;;;;;;;;;;;;;9.00;100.00;95519.53;10393602;28;2099;-76
2023/03/21 23:33:55;;;;;;;;;;;;;;;8.98;100.00;95515.53;10399701;28;2044;-75
2023/03/21 23:38:58;;;;;;;;;;;;;;;8.98;100.00;95516.34;10406053;28;2147;-75
2023/03/21 23:44:00;;;;;;;;;;;;;;;8.86;100.00;95515.81;10401012;28;1990;-75
2023/03/21 23:49:03;;;;;;;;;;;;;;;8.83;100.00;95513.66;10402080;28;1950;-75
2023/03/21 23:54:06;;;;;;;;;;;;;;;8.78;100.00;95513.66;10404469;28;2024;-74
2023/03/21 23:59:08;;;;;;;;;;;;;;;8.77;100.00;95512.84;10395600;28;1993;-75
